createdAt,value
2022-12-03T00:01:00.115Z,23.15
2022-12-03T00:06:01.468Z,20.27
2022-12-03T00:11:02.901Z,21.98
2022-12-03T00:16:04.621Z,20.85
2022-12-03T00:21:06.578Z,17.67
2022-12-03T00:26:08.205Z,17.60
2022-12-03T00:31:09.787Z,20.63
2022-12-03T00:36:11.202Z,16.35
2022-12-03T00:41:12.619Z,19.92
2022-12-03T00:46:18.163Z,16.85
2022-12-03T00:51:22.334Z,15.07
2022-12-03T00:56:23.766Z,17.25
2022-12-03T01:01:25.382Z,14.63
2022-12-03T01:06:26.964Z,13.02
2022-12-03T01:11:28.338Z,11.63
2022-12-03T01:16:29.760Z,13.07
2022-12-03T01:21:31.363Z,12.23
2022-12-03T01:26:33.078Z,11.23
2022-12-03T01:31:34.450Z,11.77
2022-12-03T01:36:35.916Z,12.38
2022-12-03T01:41:38.904Z,11.20
2022-12-03T01:46:41.854Z,12.73
2022-12-03T01:51:43.420Z,11.93
2022-12-03T01:56:46.149Z,12.57
2022-12-03T02:01:47.554Z,12.63
2022-12-03T02:06:49.138Z,11.75
2022-12-03T02:11:50.659Z,10.40
2022-12-03T02:16:52.129Z,14.32
2022-12-03T02:22:23.135Z,14.38
2022-12-03T02:27:25.277Z,12.15
2022-12-03T02:32:26.735Z,12.65
2022-12-03T02:37:34.209Z,12.20
2022-12-03T02:42:35.983Z,12.68
2022-12-03T02:47:54.201Z,13.57
2022-12-03T02:52:57.757Z,11.95
2022-12-03T02:57:59.241Z,18.67
2022-12-03T03:03:02.452Z,14.82
2022-12-03T03:08:05.327Z,13.35
2022-12-03T03:13:10.471Z,14.43
2022-12-03T03:18:13.213Z,11.40
2022-12-03T03:23:21.513Z,13.25
2022-12-03T03:28:24.360Z,14.07
2022-12-03T03:33:25.840Z,13.57
2022-12-03T03:38:29.090Z,16.05
2022-12-03T03:43:31.873Z,13.68
2022-12-03T03:48:34.882Z,14.10
2022-12-03T03:53:41.448Z,14.55
2022-12-03T03:58:43.179Z,15.93
2022-12-03T04:03:44.599Z,15.02
2022-12-03T04:08:46.018Z,16.45
2022-12-03T04:13:47.349Z,16.35
2022-12-03T04:18:48.675Z,17.20
2022-12-03T04:23:50.043Z,15.48
2022-12-03T04:28:51.400Z,17.85
2022-12-03T04:33:53.216Z,16.42
2022-12-03T04:38:54.596Z,17.33
2022-12-03T04:43:55.943Z,16.25
2022-12-03T04:48:57.301Z,16.58
2022-12-03T04:53:58.713Z,18.40
2022-12-03T04:59:00.269Z,15.60
2022-12-03T05:04:01.618Z,17.60
2022-12-03T05:09:03.156Z,18.70
2022-12-03T05:14:05.007Z,15.32
2022-12-03T05:19:07.459Z,18.23
2022-12-03T05:24:08.951Z,18.40
2022-12-03T05:29:10.281Z,16.65
2022-12-03T05:34:11.678Z,17.08
2022-12-03T05:39:13.155Z,16.77
2022-12-03T05:44:20.120Z,20.42
2022-12-03T05:49:21.928Z,17.20
2022-12-03T05:54:23.306Z,18.98
2022-12-03T05:59:24.754Z,19.20
2022-12-03T06:04:26.168Z,18.42
2022-12-03T06:09:27.511Z,20.05
2022-12-03T06:14:28.917Z,16.88
2022-12-03T06:19:30.922Z,15.93
2022-12-03T06:24:32.329Z,20.33
2022-12-03T06:29:33.694Z,20.15
2022-12-03T06:34:35.404Z,17.80
2022-12-03T06:39:36.808Z,18.02
2022-12-03T06:44:38.149Z,16.05
2022-12-03T06:54:55.398Z,17.88
2022-12-03T06:59:57.047Z,17.35
2022-12-03T07:04:58.889Z,17.90
2022-12-03T07:10:00.504Z,18.90
2022-12-03T07:15:01.854Z,18.60
2022-12-03T07:20:04.105Z,19.27
2022-12-03T07:25:06.305Z,18.80
2022-12-03T07:30:08.636Z,17.30
2022-12-03T07:35:10.082Z,19.67
2022-12-03T07:40:11.981Z,16.75
2022-12-03T07:45:13.557Z,19.90
2022-12-03T07:50:15.097Z,15.98
2022-12-03T07:55:16.589Z,17.10
2022-12-03T08:00:18.786Z,14.63
2022-12-03T08:05:20.266Z,18.67
2022-12-03T08:10:22.496Z,17.33
2022-12-03T08:15:39.619Z,15.98
2022-12-03T08:20:42.434Z,15.15
2022-12-03T08:25:45.310Z,17.42
2022-12-03T08:31:09.652Z,15.57
2022-12-03T08:36:26.816Z,16.83
2022-12-03T08:41:29.770Z,15.02
2022-12-03T08:46:31.187Z,16.42
2022-12-03T08:51:32.633Z,15.52
2022-12-03T08:56:35.963Z,14.80
2022-12-03T09:01:48.514Z,14.80
2022-12-03T09:06:51.377Z,14.68
2022-12-03T09:11:53.421Z,14.90
2022-12-03T09:16:56.235Z,14.95
2022-12-03T09:21:57.899Z,14.43
2022-12-03T09:26:59.605Z,15.75
2022-12-03T09:32:27.955Z,13.88
2022-12-03T09:37:29.414Z,14.48
2022-12-03T09:42:30.888Z,15.07
2022-12-03T09:47:32.377Z,17.70
2022-12-03T09:52:34.462Z,17.50
2022-12-03T09:57:35.951Z,14.15
2022-12-03T10:02:37.439Z,15.25
2022-12-03T10:07:39.715Z,15.23
2022-12-03T10:12:41.166Z,17.55
2022-12-03T10:17:42.996Z,15.68
2022-12-03T10:22:44.338Z,15.32
2022-12-03T10:28:01.100Z,17.38
2022-12-03T10:33:15.875Z,15.82
2022-12-03T10:38:21.460Z,19.30
2022-12-03T10:43:26.683Z,18.95
2022-12-03T10:48:28.126Z,17.30
2022-12-03T10:53:38.564Z,17.00
2022-12-03T10:58:43.866Z,16.90
2022-12-03T11:03:45.998Z,14.77
2022-12-03T11:08:56.789Z,15.43
2022-12-03T11:14:04.031Z,19.70
2022-12-03T11:19:16.042Z,19.60
2022-12-03T11:24:20.789Z,18.02
2022-12-03T11:29:51.955Z,19.75
2022-12-03T11:34:53.660Z,16.33
2022-12-03T11:40:00.681Z,16.40
2022-12-03T11:45:05.085Z,16.85
2022-12-03T11:50:40.673Z,14.25
2022-12-03T11:55:45.306Z,15.60
2022-12-03T12:00:51.774Z,20.20
2022-12-03T12:06:13.610Z,20.45
2022-12-03T12:11:32.198Z,18.70
2022-12-03T12:16:53.964Z,15.75
2022-12-03T12:21:56.079Z,16.35
2022-12-03T12:27:08.824Z,19.30
2022-12-03T12:32:10.284Z,15.18
2022-12-03T12:37:33.617Z,15.77
2022-12-03T12:42:44.261Z,17.35
2022-12-03T12:48:10.063Z,16.63
2022-12-03T12:53:17.581Z,16.88
2022-12-03T12:58:19.855Z,19.70
2022-12-03T13:03:24.293Z,17.42
2022-12-03T13:08:32.142Z,19.40
2022-12-03T13:13:44.177Z,16.88
2022-12-03T13:18:48.445Z,20.20
2022-12-03T13:23:57.214Z,17.98
2022-12-03T13:29:02.436Z,20.92
2022-12-03T13:34:14.001Z,18.52
2022-12-03T13:39:27.174Z,18.02
2022-12-03T13:44:30.315Z,20.02
2022-12-03T13:49:32.008Z,19.25
2022-12-03T13:54:34.378Z,25.45
2022-12-03T13:59:35.736Z,21.35
2022-12-03T14:04:37.130Z,18.45
2022-12-03T14:09:38.553Z,19.52
2022-12-03T14:14:39.906Z,21.83
2022-12-03T14:19:41.349Z,21.83
2022-12-03T14:24:42.784Z,18.00
2022-12-03T14:40:47.523Z,18.95
2022-12-03T14:45:49.128Z,18.15
2022-12-03T14:50:50.536Z,18.30
2022-12-03T14:55:51.908Z,24.50
2022-12-03T15:00:53.478Z,20.15
2022-12-03T15:05:54.981Z,21.55
2022-12-03T15:10:56.495Z,25.33
2022-12-03T15:15:57.975Z,24.08
2022-12-03T15:20:59.443Z,19.92
2022-12-03T15:26:00.852Z,20.75
2022-12-03T15:31:02.371Z,22.27
2022-12-03T15:36:03.954Z,18.70
2022-12-03T15:41:05.526Z,21.25
2022-12-03T15:46:07.142Z,23.35
2022-12-03T15:51:08.700Z,24.25
2022-12-03T15:56:10.103Z,23.90
2022-12-03T16:01:11.627Z,24.92
2022-12-03T16:06:12.967Z,25.15
2022-12-03T16:11:14.374Z,24.50
2022-12-03T16:16:15.769Z,27.35
2022-12-03T16:21:20.752Z,23.58
2022-12-03T16:26:24.799Z,25.25
2022-12-03T16:31:26.443Z,27.02
2022-12-03T16:36:27.775Z,24.33
2022-12-03T16:41:29.299Z,27.42
2022-12-03T16:46:31.050Z,28.45
2022-12-03T16:51:32.490Z,27.60
2022-12-03T16:56:33.893Z,25.38
2022-12-03T17:01:35.376Z,23.75
2022-12-03T17:06:36.803Z,26.30
2022-12-03T17:11:38.180Z,28.60
2022-12-03T17:16:39.564Z,27.60
2022-12-03T17:21:41.703Z,24.13
2022-12-03T17:26:43.051Z,26.30
2022-12-03T17:31:44.524Z,29.67
2022-12-03T17:36:46.090Z,24.30
2022-12-03T17:41:47.500Z,25.20
2022-12-03T17:46:48.890Z,24.40
2022-12-03T17:51:50.319Z,30.70
2022-12-03T17:56:51.684Z,27.80
2022-12-03T18:01:53.175Z,32.50
2022-12-03T18:06:59.036Z,29.05
2022-12-03T18:12:03.586Z,27.73
2022-12-03T18:17:05.044Z,23.30
2022-12-03T18:22:06.449Z,22.50
2022-12-03T18:27:08.078Z,20.98
2022-12-03T18:32:27.204Z,25.92
2022-12-03T18:37:31.496Z,24.00
2022-12-03T18:42:32.904Z,20.60
2022-12-03T18:47:34.341Z,22.08
2022-12-03T18:52:35.873Z,20.67
2022-12-03T18:57:37.309Z,21.15
2022-12-03T19:03:01.736Z,22.40
2022-12-03T19:08:00.852Z,21.90
2022-12-03T19:13:02.316Z,20.92
2022-12-03T19:18:04.654Z,23.42
2022-12-03T19:23:06.198Z,24.10
2022-12-03T19:28:07.949Z,27.42
2022-12-03T19:33:09.409Z,22.42
2022-12-03T19:38:10.813Z,24.08
2022-12-03T19:43:12.320Z,22.15
2022-12-03T19:48:13.702Z,22.88
2022-12-03T19:53:15.595Z,25.85
2022-12-03T19:58:17.081Z,20.80
2022-12-03T20:03:18.805Z,24.15
2022-12-03T20:08:20.301Z,21.73
2022-12-03T20:13:21.839Z,24.70
2022-12-03T20:18:23.823Z,22.98
2022-12-03T20:23:25.393Z,23.83
2022-12-03T20:28:28.496Z,25.20
2022-12-03T20:33:30.319Z,26.38
2022-12-03T20:38:34.590Z,23.83
2022-12-03T20:43:36.452Z,21.92
2022-12-03T20:48:38.616Z,21.77
2022-12-03T20:53:40.679Z,19.13
2022-12-03T20:58:42.121Z,23.83
2022-12-03T21:03:44.610Z,19.90
2022-12-03T21:08:46.434Z,21.58
2022-12-03T21:13:48.019Z,26.10
2022-12-03T21:18:49.542Z,23.67
2022-12-03T21:23:50.956Z,23.05
2022-12-03T21:28:53.819Z,24.25
2022-12-03T21:33:56.483Z,23.23
2022-12-03T21:38:57.925Z,22.77
2022-12-03T21:43:59.299Z,22.67
2022-12-03T21:49:00.733Z,25.38
2022-12-03T21:54:02.179Z,23.67
2022-12-03T21:59:04.114Z,23.65
2022-12-03T22:04:05.689Z,24.23
2022-12-03T22:09:07.077Z,22.83
2022-12-03T22:14:08.504Z,23.15
2022-12-03T22:19:10.001Z,23.75
2022-12-03T22:24:11.514Z,22.67
2022-12-03T22:29:13.192Z,24.67
2022-12-03T22:34:14.689Z,22.23
2022-12-03T22:39:16.090Z,25.17
2022-12-03T22:44:17.537Z,23.70
2022-12-03T22:49:19.096Z,21.38
2022-12-03T22:54:23.888Z,22.35
2022-12-03T22:59:37.743Z,25.08
2022-12-03T23:04:52.777Z,24.05
2022-12-03T23:10:56.937Z,26.02
2022-12-03T23:16:06.805Z,20.75
2022-12-03T23:26:42.291Z,25.43
2022-12-03T23:31:54.044Z,22.63
2022-12-03T23:37:17.282Z,21.98
2022-12-03T23:42:31.660Z,24.08
2022-12-03T23:48:12.473Z,26.15
